createdAt,value
2017-07-20T00:01:34.041Z,31.53
2017-07-20T00:04:01.842Z,35.00
2017-07-20T00:06:29.384Z,31.37
2017-07-20T00:08:57.077Z,32.10
2017-07-20T00:11:24.888Z,26.77
2017-07-20T00:13:52.410Z,27.47
2017-07-20T00:16:20.119Z,30.60
2017-07-20T00:18:47.920Z,28.83
2017-07-20T00:21:15.445Z,24.20
2017-07-20T00:23:42.981Z,23.73
2017-07-20T00:26:10.792Z,29.90
2017-07-20T00:28:38.566Z,31.07
2017-07-20T00:31:06.084Z,28.53
2017-07-20T00:33:34.091Z,31.83
2017-07-20T00:36:01.747Z,31.13
2017-07-20T00:38:29.254Z,30.33
2017-07-20T00:40:57.049Z,28.47
2017-07-20T00:43:24.585Z,31.47
2017-07-20T00:45:52.115Z,29.03
2017-07-20T00:48:19.971Z,24.20
2017-07-20T00:50:47.492Z,29.30
2017-07-20T00:53:15.011Z,27.47
2017-07-20T00:55:42.806Z,31.60
2017-07-20T00:58:10.330Z,30.60
2017-07-20T01:00:37.849Z,27.50
2017-07-20T01:03:05.827Z,26.47
2017-07-20T01:05:33.345Z,27.57
2017-07-20T01:08:00.852Z,28.93
2017-07-20T01:10:28.695Z,25.73
2017-07-20T01:12:56.223Z,32.77
2017-07-20T01:15:23.760Z,34.07
2017-07-20T01:17:51.554Z,30.10
2017-07-20T01:20:19.241Z,26.77
2017-07-20T01:22:46.925Z,31.23
2017-07-20T01:25:14.742Z,25.83
2017-07-20T01:27:42.257Z,31.23
2017-07-20T01:30:09.774Z,27.83
2017-07-20T01:32:37.579Z,31.40
2017-07-20T01:35:05.109Z,20.33
2017-07-20T01:37:32.633Z,24.83
2017-07-20T01:40:00.465Z,27.13
2017-07-20T01:42:27.980Z,29.30
2017-07-20T01:44:55.509Z,34.10
2017-07-20T01:47:23.307Z,33.53
2017-07-20T01:49:50.823Z,33.37
2017-07-20T01:52:18.345Z,32.07
2017-07-20T01:54:46.147Z,33.67
2017-07-20T01:57:13.674Z,33.73
2017-07-20T01:59:41.192Z,35.70
2017-07-20T02:02:09.000Z,31.40
2017-07-20T02:04:36.509Z,27.50
2017-07-20T02:07:04.037Z,34.47
2017-07-20T02:09:31.830Z,33.23
2017-07-20T02:11:59.346Z,32.87
2017-07-20T02:14:26.853Z,35.13
2017-07-20T02:16:54.674Z,34.83
2017-07-20T02:19:22.195Z,28.97
2017-07-20T02:21:49.702Z,37.20
2017-07-20T02:24:17.495Z,37.30
2017-07-20T02:26:45.217Z,34.80
2017-07-20T02:29:12.743Z,35.70
2017-07-20T02:31:40.702Z,34.63
2017-07-20T02:34:08.227Z,32.57
2017-07-20T02:36:35.758Z,33.87
2017-07-20T02:39:03.706Z,32.77
2017-07-20T02:41:31.242Z,36.03
2017-07-20T02:43:58.769Z,32.20
2017-07-20T02:46:26.586Z,32.97
2017-07-20T02:48:54.109Z,33.50
2017-07-20T02:51:21.608Z,30.80
2017-07-20T02:53:49.419Z,32.00
2017-07-20T02:56:17.087Z,36.03
2017-07-20T02:58:44.609Z,36.40
2017-07-20T03:01:12.395Z,37.63
2017-07-20T03:03:39.906Z,31.73
2017-07-20T03:06:07.418Z,31.87
2017-07-20T03:08:35.209Z,34.90
2017-07-20T03:11:02.732Z,38.80
2017-07-20T03:13:30.270Z,35.40
2017-07-20T03:15:58.049Z,36.90
2017-07-20T03:18:25.564Z,38.80
2017-07-20T03:20:53.075Z,36.97
2017-07-20T03:23:20.884Z,37.20
2017-07-20T03:25:48.395Z,37.80
2017-07-20T03:28:15.897Z,35.53
2017-07-20T03:30:43.700Z,33.87
2017-07-20T03:33:11.236Z,36.43
2017-07-20T03:35:38.958Z,32.13
2017-07-20T03:38:06.767Z,33.53
2017-07-20T03:40:34.288Z,35.40
2017-07-20T03:43:01.793Z,31.23
2017-07-20T03:45:29.669Z,34.43
2017-07-20T03:47:57.186Z,35.97
2017-07-20T03:50:24.714Z,38.37
2017-07-20T03:52:52.512Z,29.00
2017-07-20T03:55:20.039Z,30.23
2017-07-20T03:57:47.576Z,35.83
2017-07-20T04:00:15.377Z,37.77
2017-07-20T04:02:42.900Z,32.70
2017-07-20T04:05:10.556Z,32.60
2017-07-20T04:07:38.374Z,34.70
2017-07-20T04:10:05.904Z,27.50
2017-07-20T04:12:33.419Z,35.80
2017-07-20T04:15:01.220Z,32.40
2017-07-20T04:17:28.742Z,33.83
2017-07-20T04:19:56.264Z,35.47
2017-07-20T04:22:24.103Z,38.17
2017-07-20T04:24:51.622Z,35.70
2017-07-20T04:27:19.156Z,29.10
2017-07-20T04:29:46.952Z,32.43
2017-07-20T04:32:14.481Z,25.60
2017-07-20T04:34:42.023Z,38.57
2017-07-20T04:37:10.024Z,35.43
2017-07-20T04:39:37.551Z,36.33
2017-07-20T04:42:05.072Z,40.77
2017-07-20T04:44:32.868Z,32.87
2017-07-20T04:47:00.409Z,36.90
2017-07-20T04:49:27.931Z,30.87
2017-07-20T04:51:55.737Z,27.90
2017-07-20T04:54:23.250Z,36.67
2017-07-20T04:56:50.882Z,35.10
2017-07-20T04:59:18.672Z,52.83
2017-07-20T05:01:46.209Z,39.60
2017-07-20T05:04:13.725Z,35.43
2017-07-20T05:06:41.568Z,36.63
2017-07-20T05:09:09.092Z,36.70
2017-07-20T05:11:36.632Z,34.77
2017-07-20T05:14:04.426Z,27.37
2017-07-20T05:16:31.948Z,36.83
2017-07-20T05:18:59.468Z,36.63
2017-07-20T05:21:27.283Z,34.87
2017-07-20T05:23:54.811Z,30.47
2017-07-20T05:26:22.352Z,35.67
2017-07-20T05:28:50.163Z,29.83
2017-07-20T05:31:17.717Z,34.20
2017-07-20T05:33:45.254Z,37.33
2017-07-20T05:36:13.080Z,33.00
2017-07-20T05:38:40.602Z,38.33
2017-07-20T05:41:08.260Z,33.70
2017-07-20T05:43:36.091Z,32.33
2017-07-20T05:46:03.606Z,33.53
2017-07-20T05:48:31.126Z,34.20
2017-07-20T05:50:58.970Z,38.23
2017-07-20T05:53:26.502Z,35.53
2017-07-20T05:55:54.013Z,33.70
2017-07-20T05:58:21.823Z,36.10
2017-07-20T06:00:49.365Z,34.77
2017-07-20T06:03:16.883Z,32.27
2017-07-20T06:05:44.682Z,34.70
2017-07-20T06:08:12.211Z,32.60
2017-07-20T06:10:39.864Z,35.77
2017-07-20T06:13:08.492Z,33.40
2017-07-20T06:15:36.038Z,28.60
2017-07-20T06:18:03.706Z,32.07
2017-07-20T06:20:31.517Z,32.90
2017-07-20T06:22:59.160Z,30.03
2017-07-20T06:25:26.688Z,38.80
2017-07-20T06:27:54.490Z,26.10
2017-07-20T06:30:22.410Z,29.73
2017-07-20T06:32:49.936Z,26.70
2017-07-20T06:35:17.759Z,27.77
2017-07-20T06:37:45.266Z,33.40
2017-07-20T06:40:12.777Z,33.13
2017-07-20T06:42:40.619Z,23.90
2017-07-20T06:45:08.149Z,32.20
2017-07-20T06:47:35.660Z,34.27
2017-07-20T06:50:03.481Z,24.87
2017-07-20T06:52:31.022Z,29.57
2017-07-20T06:54:58.525Z,25.33
2017-07-20T06:57:26.365Z,29.03
2017-07-20T06:59:53.884Z,24.23
2017-07-20T07:02:21.408Z,26.80
2017-07-20T07:04:49.235Z,25.87
2017-07-20T07:07:16.743Z,32.13
2017-07-20T07:09:44.272Z,27.33
2017-07-20T07:12:12.081Z,27.67
2017-07-20T07:14:39.608Z,28.30
2017-07-20T07:17:07.130Z,28.47
2017-07-20T07:19:34.945Z,21.67
2017-07-20T07:22:02.497Z,24.73
2017-07-20T07:24:30.003Z,28.50
2017-07-20T07:26:57.829Z,25.37
2017-07-20T07:29:25.369Z,23.93
2017-07-20T07:31:52.882Z,28.57
2017-07-20T07:34:20.686Z,25.70
2017-07-20T07:36:48.211Z,24.00
2017-07-20T07:39:15.747Z,21.10
2017-07-20T07:41:43.572Z,24.73
2017-07-20T07:44:11.105Z,25.50
2017-07-20T07:46:38.669Z,19.80
2017-07-20T07:49:06.479Z,21.40
2017-07-20T07:51:34.008Z,25.60
2017-07-20T07:54:01.549Z,20.23
2017-07-20T07:56:29.375Z,23.43
2017-07-20T07:58:56.899Z,20.67
2017-07-20T08:01:24.422Z,16.30
2017-07-20T08:03:52.247Z,16.90
2017-07-20T08:06:19.763Z,20.30
2017-07-20T08:08:47.269Z,18.27
2017-07-20T08:11:14.796Z,18.77
2017-07-20T08:13:42.309Z,19.57
2017-07-20T08:16:10.160Z,19.53
2017-07-20T08:18:37.678Z,19.37
2017-07-20T08:21:05.194Z,17.17
2017-07-20T08:23:32.775Z,14.27
2017-07-20T08:26:00.287Z,15.43
2017-07-20T08:28:28.110Z,16.40
2017-07-20T08:30:55.617Z,12.40
2017-07-20T08:33:23.126Z,11.50
2017-07-20T08:35:50.667Z,10.13
2017-07-20T08:38:18.213Z,12.10
2017-07-20T08:40:46.044Z,11.87
2017-07-20T08:43:13.588Z,10.43
2017-07-20T08:45:41.111Z,9.70
2017-07-20T08:48:08.628Z,8.87
2017-07-20T08:50:36.143Z,8.20
2017-07-20T08:53:03.966Z,6.30
2017-07-20T08:55:31.486Z,10.20
2017-07-20T08:57:58.977Z,8.30
2017-07-20T09:00:26.502Z,10.63
2017-07-20T09:02:54.007Z,11.50
2017-07-20T09:05:21.829Z,8.53
2017-07-20T09:07:49.370Z,9.03
2017-07-20T09:10:16.874Z,9.60
2017-07-20T09:12:44.433Z,9.33
2017-07-20T09:15:11.970Z,9.90
2017-07-20T09:17:39.627Z,11.70
2017-07-20T09:20:07.192Z,12.73
2017-07-20T09:22:34.736Z,12.80
2017-07-20T09:25:02.248Z,13.67
2017-07-20T09:27:30.088Z,11.57
2017-07-20T09:29:57.592Z,10.60
2017-07-20T09:32:25.115Z,11.97
2017-07-20T09:34:52.656Z,11.40
2017-07-20T09:37:20.189Z,12.50
2017-07-20T09:39:48.011Z,9.93
2017-07-20T09:42:15.524Z,8.10
2017-07-20T09:44:43.053Z,11.97
2017-07-20T09:47:10.616Z,8.87
2017-07-20T09:49:38.138Z,8.17
2017-07-20T09:52:05.940Z,9.13
2017-07-20T09:54:33.479Z,11.43
2017-07-20T09:57:01.018Z,11.23
2017-07-20T09:59:28.537Z,9.83
2017-07-20T10:01:56.050Z,8.57
2017-07-20T10:04:23.867Z,8.93
2017-07-20T10:06:51.383Z,13.00
2017-07-20T10:09:18.928Z,11.03
2017-07-20T10:11:46.451Z,9.20
2017-07-20T10:14:14.066Z,9.60
2017-07-20T10:16:41.875Z,10.30
2017-07-20T10:19:09.454Z,9.50
2017-07-20T10:21:37.066Z,9.80
2017-07-20T10:24:04.658Z,10.17
2017-07-20T10:26:32.198Z,9.00
2017-07-20T10:29:00.009Z,8.23
2017-07-20T10:31:27.540Z,12.70
2017-07-20T10:33:55.297Z,13.13
2017-07-20T10:36:22.837Z,9.30
2017-07-20T10:38:50.499Z,9.33
2017-07-20T10:41:18.433Z,8.67
2017-07-20T10:43:45.987Z,9.23
2017-07-20T10:46:13.499Z,8.07
2017-07-20T10:48:41.012Z,8.10
2017-07-20T10:51:08.721Z,8.33
2017-07-20T10:53:36.532Z,9.00
2017-07-20T10:56:04.057Z,8.43
2017-07-20T10:58:31.670Z,10.63
2017-07-20T11:00:59.304Z,7.50
2017-07-20T11:03:27.011Z,6.60
2017-07-20T11:05:54.942Z,7.03
2017-07-20T11:08:22.451Z,7.20
2017-07-20T11:10:49.985Z,10.77
2017-07-20T11:13:17.691Z,7.50
2017-07-20T11:15:45.424Z,8.63
2017-07-20T11:18:13.219Z,7.20
2017-07-20T11:20:40.738Z,8.83
2017-07-20T11:23:08.253Z,8.20
2017-07-20T11:25:35.872Z,8.80
2017-07-20T11:28:03.492Z,9.57
2017-07-20T11:30:31.313Z,7.07
2017-07-20T11:32:58.970Z,6.37
2017-07-20T11:35:26.494Z,9.27
2017-07-20T11:37:54.021Z,8.87
2017-07-20T11:40:21.547Z,8.07
2017-07-20T11:42:49.381Z,8.00
2017-07-20T11:45:16.953Z,6.60
2017-07-20T11:47:44.480Z,7.53
2017-07-20T11:50:12.015Z,7.77
2017-07-20T11:52:39.517Z,14.93
2017-07-20T11:55:07.606Z,8.27
2017-07-20T11:57:35.128Z,10.87
2017-07-20T12:00:02.657Z,7.50
2017-07-20T12:02:30.190Z,6.67
2017-07-20T12:04:57.707Z,7.90
2017-07-20T12:07:25.503Z,8.33
2017-07-20T12:09:53.038Z,7.10
2017-07-20T12:12:20.563Z,16.13
2017-07-20T12:14:48.115Z,11.83
2017-07-20T12:17:15.626Z,8.00
2017-07-20T12:19:43.515Z,11.13
2017-07-20T12:22:11.085Z,9.60
2017-07-20T12:24:38.617Z,10.40
2017-07-20T12:27:07.042Z,11.70
2017-07-20T12:29:34.591Z,8.53
2017-07-20T12:32:02.412Z,8.13
2017-07-20T12:34:29.925Z,8.77
2017-07-20T12:36:57.426Z,10.83
2017-07-20T12:39:24.956Z,11.50
2017-07-20T12:41:52.502Z,8.73
2017-07-20T12:44:20.036Z,7.93
2017-07-20T12:46:47.556Z,10.63
2017-07-20T12:49:15.401Z,8.77
2017-07-20T12:51:42.935Z,9.93
2017-07-20T12:54:10.447Z,10.50
2017-07-20T12:56:37.983Z,10.23
2017-07-20T12:59:05.499Z,8.83
2017-07-20T13:01:33.302Z,10.43
2017-07-20T13:04:00.819Z,9.90
2017-07-20T13:06:28.344Z,8.40
2017-07-20T13:08:55.861Z,7.60
2017-07-20T13:11:23.408Z,7.13
2017-07-20T13:13:51.212Z,8.83
2017-07-20T13:16:18.725Z,8.60
2017-07-20T13:18:46.258Z,8.10
2017-07-20T13:21:13.794Z,9.17
2017-07-20T13:23:41.325Z,10.93
2017-07-20T13:26:09.147Z,8.23
2017-07-20T13:28:36.667Z,9.87
2017-07-20T13:31:04.179Z,9.13
2017-07-20T13:33:31.702Z,10.23
2017-07-20T13:35:59.223Z,8.90
2017-07-20T13:38:27.048Z,8.53
2017-07-20T13:40:54.665Z,9.20
2017-07-20T13:43:22.176Z,8.63
2017-07-20T13:45:49.715Z,9.57
2017-07-20T13:48:17.272Z,9.60
2017-07-20T13:50:45.106Z,7.23
2017-07-20T13:53:12.627Z,8.03
2017-07-20T13:55:40.146Z,10.80
2017-07-20T13:58:07.684Z,9.70
2017-07-20T14:00:35.241Z,9.00
2017-07-20T14:03:03.065Z,8.20
2017-07-20T14:05:30.617Z,11.07
2017-07-20T14:07:58.205Z,10.90
2017-07-20T14:10:25.741Z,11.07
2017-07-20T14:12:53.265Z,8.90
2017-07-20T14:15:20.779Z,10.20
2017-07-20T14:17:49.434Z,9.00
2017-07-20T14:20:17.135Z,8.37
2017-07-20T14:22:44.679Z,8.93
2017-07-20T14:25:12.313Z,8.77
2017-07-20T14:27:39.832Z,9.00
2017-07-20T14:30:07.635Z,9.10
2017-07-20T14:32:35.185Z,8.93
2017-07-20T14:35:03.007Z,9.53
2017-07-20T14:37:30.994Z,10.27
2017-07-20T14:39:58.658Z,10.60
2017-07-20T14:42:26.183Z,10.80
2017-07-20T14:44:54.110Z,9.27
2017-07-20T14:47:21.616Z,15.83
2017-07-20T14:49:49.152Z,11.83
2017-07-20T14:52:16.804Z,10.77
2017-07-20T14:54:44.351Z,12.60
2017-07-20T14:57:12.253Z,11.30
2017-07-20T14:59:39.827Z,11.80
2017-07-20T15:02:07.449Z,13.73
2017-07-20T15:04:35.008Z,13.37
2017-07-20T15:07:02.550Z,12.97
2017-07-20T15:09:30.539Z,12.67
2017-07-20T15:11:58.127Z,13.30
2017-07-20T15:14:25.709Z,11.43
2017-07-20T15:16:53.248Z,17.20
2017-07-20T15:19:20.944Z,8.60
2017-07-20T15:21:50.239Z,8.20
2017-07-20T15:24:17.755Z,9.70
2017-07-20T15:26:45.412Z,12.50
2017-07-20T15:29:13.109Z,10.33
2017-07-20T15:31:40.665Z,9.63
2017-07-20T15:34:08.504Z,10.00
2017-07-20T15:36:36.005Z,9.27
2017-07-20T15:39:04.570Z,9.40
2017-07-20T15:41:32.110Z,9.40
2017-07-20T15:43:59.723Z,10.80
2017-07-20T15:46:27.665Z,8.37
2017-07-20T15:48:55.172Z,12.17
2017-07-20T15:51:22.675Z,8.97
2017-07-20T15:53:50.200Z,11.73
2017-07-20T15:56:17.876Z,9.83
2017-07-20T15:58:45.828Z,10.80
2017-07-20T16:01:13.402Z,10.57
2017-07-20T16:03:40.915Z,9.63
2017-07-20T16:06:08.444Z,10.53
2017-07-20T16:08:36.017Z,13.03
2017-07-20T16:11:03.822Z,9.17
2017-07-20T16:13:31.335Z,10.77
2017-07-20T16:15:58.850Z,9.77
2017-07-20T16:18:26.402Z,9.50
2017-07-20T16:20:53.951Z,9.27
2017-07-20T16:23:21.770Z,9.30
2017-07-20T16:25:49.300Z,10.17
2017-07-20T16:28:16.831Z,10.77
2017-07-20T16:30:44.359Z,10.70
2017-07-20T16:33:11.898Z,9.87
2017-07-20T16:35:39.702Z,8.63
2017-07-20T16:38:07.229Z,10.30
2017-07-20T16:40:34.729Z,10.13
2017-07-20T16:43:02.264Z,9.43
2017-07-20T16:45:29.808Z,10.23
2017-07-20T16:47:58.346Z,9.60
2017-07-20T16:50:25.894Z,10.67
2017-07-20T16:52:53.419Z,11.27
2017-07-20T16:55:20.971Z,9.00
2017-07-20T16:57:48.501Z,8.93
2017-07-20T17:00:16.342Z,8.33
2017-07-20T17:02:43.900Z,12.50
2017-07-20T17:05:11.560Z,12.33
2017-07-20T17:07:39.181Z,7.43
2017-07-20T17:10:06.688Z,8.33
2017-07-20T17:12:34.495Z,12.17
2017-07-20T17:15:02.657Z,9.00
2017-07-20T17:17:30.186Z,13.43
2017-07-20T17:19:57.711Z,10.80
2017-07-20T17:22:25.242Z,8.77
2017-07-20T17:24:53.102Z,10.20
2017-07-20T17:27:20.639Z,13.57
2017-07-20T17:29:48.239Z,10.20
2017-07-20T17:32:15.776Z,10.43
2017-07-20T17:34:43.401Z,11.67
2017-07-20T17:37:11.210Z,9.27
2017-07-20T17:39:38.732Z,9.60
2017-07-20T17:42:06.282Z,12.03
2017-07-20T17:44:33.826Z,12.20
2017-07-20T17:47:01.341Z,12.33
2017-07-20T17:49:29.162Z,10.87
2017-07-20T17:51:56.672Z,10.23
2017-07-20T17:54:24.206Z,10.50
2017-07-20T17:56:51.724Z,9.83
2017-07-20T17:59:19.278Z,9.03
2017-07-20T18:01:47.079Z,9.63
2017-07-20T18:04:14.596Z,14.03
2017-07-20T18:06:42.120Z,11.13
2017-07-20T18:09:09.640Z,10.53
2017-07-20T18:11:37.147Z,10.97
2017-07-20T18:14:04.948Z,13.37
2017-07-20T18:16:32.472Z,15.63
2017-07-20T18:19:00.021Z,13.13
2017-07-20T18:21:27.546Z,13.50
2017-07-20T18:23:55.066Z,11.13
2017-07-20T18:26:22.878Z,12.93
2017-07-20T18:28:50.384Z,12.20
2017-07-20T18:31:18.826Z,11.90
2017-07-20T18:33:46.366Z,10.53
2017-07-20T18:36:13.880Z,10.73
2017-07-20T18:38:41.702Z,10.90
2017-07-20T18:41:09.215Z,10.30
2017-07-20T18:43:36.737Z,11.70
2017-07-20T18:46:04.560Z,13.77
2017-07-20T18:48:32.120Z,12.33
2017-07-20T18:50:59.650Z,9.90
2017-07-20T18:53:27.280Z,8.60
2017-07-20T18:55:54.828Z,10.20
2017-07-20T18:58:22.727Z,7.50
2017-07-20T19:00:50.234Z,8.43
2017-07-20T19:03:17.753Z,10.60
2017-07-20T19:05:45.292Z,9.13
2017-07-20T19:08:12.797Z,11.20
2017-07-20T19:10:40.612Z,10.60
2017-07-20T19:13:08.169Z,9.07
2017-07-20T19:15:35.676Z,10.53
2017-07-20T19:18:03.248Z,12.33
2017-07-20T19:20:30.771Z,10.00
2017-07-20T19:22:58.311Z,8.17
2017-07-20T19:25:25.844Z,9.60
2017-07-20T19:27:53.653Z,10.23
2017-07-20T19:30:21.169Z,9.37
2017-07-20T19:32:48.692Z,9.13
2017-07-20T19:35:16.220Z,9.07
2017-07-20T19:37:43.736Z,8.57
2017-07-20T19:40:11.546Z,8.23
2017-07-20T19:42:39.067Z,12.20
2017-07-20T19:45:06.781Z,7.17
2017-07-20T19:47:34.341Z,6.77
2017-07-20T19:50:01.875Z,10.57
2017-07-20T19:52:29.684Z,13.80
2017-07-20T19:54:57.199Z,8.00
2017-07-20T19:57:24.706Z,10.10
2017-07-20T19:59:52.307Z,7.10
2017-07-20T20:02:19.968Z,8.03
2017-07-20T20:04:48.013Z,6.70
2017-07-20T20:07:15.546Z,8.43
2017-07-20T20:09:43.069Z,11.40
2017-07-20T20:12:10.605Z,7.03
2017-07-20T20:14:38.125Z,8.87
2017-07-20T20:17:05.932Z,7.20
2017-07-20T20:19:33.439Z,7.93
2017-07-20T20:22:00.954Z,9.10
2017-07-20T20:24:28.488Z,6.37
2017-07-20T20:26:56.020Z,7.67
2017-07-20T20:29:23.850Z,6.73
2017-07-20T20:31:51.357Z,9.97
2017-07-20T20:34:18.905Z,10.93
2017-07-20T20:36:46.511Z,7.13
2017-07-20T20:39:14.047Z,6.40
2017-07-20T20:41:41.854Z,7.77
2017-07-20T20:44:09.377Z,8.10
2017-07-20T20:46:36.905Z,8.47
2017-07-20T20:49:04.431Z,10.43
2017-07-20T20:51:31.958Z,11.60
2017-07-20T20:53:59.513Z,18.20
2017-07-20T20:56:27.055Z,13.00
2017-07-20T20:58:54.868Z,16.70
2017-07-20T21:01:22.384Z,8.63
2017-07-20T21:03:49.900Z,10.33
2017-07-20T21:06:17.509Z,9.53
2017-07-20T21:08:45.036Z,16.27
2017-07-20T21:11:12.854Z,12.20
2017-07-20T21:13:40.362Z,14.60
2017-07-20T21:16:07.879Z,10.30
2017-07-20T21:18:35.420Z,10.90
2017-07-20T21:21:02.935Z,12.27
2017-07-20T21:23:30.763Z,10.30
2017-07-20T21:25:58.277Z,12.40
2017-07-20T21:28:25.803Z,10.80
2017-07-20T21:30:53.339Z,14.90
2017-07-20T21:33:20.873Z,10.10
2017-07-20T21:35:48.681Z,12.77
2017-07-20T21:38:16.211Z,11.00
2017-07-20T21:40:43.757Z,11.20
2017-07-20T21:43:11.585Z,11.93
2017-07-20T21:45:39.122Z,10.77
2017-07-20T21:48:07.835Z,11.13
2017-07-20T21:50:35.462Z,11.43
2017-07-20T21:53:02.989Z,13.23
2017-07-20T21:55:36.334Z,11.37
2017-07-20T21:58:03.849Z,11.60
2017-07-20T22:00:31.378Z,15.40
2017-07-20T22:02:58.905Z,14.30
2017-07-20T22:05:26.424Z,12.00
2017-07-20T22:07:54.202Z,12.23
2017-07-20T22:10:21.719Z,11.87
2017-07-20T22:12:49.234Z,13.30
2017-07-20T22:15:16.789Z,12.77
2017-07-20T22:17:44.323Z,11.33
2017-07-20T22:20:12.116Z,12.80
2017-07-20T22:22:39.669Z,16.17
2017-07-20T22:25:07.208Z,12.63
2017-07-20T22:27:34.757Z,13.10
2017-07-20T22:30:02.278Z,14.60
2017-07-20T22:32:30.108Z,11.63
2017-07-20T22:34:57.627Z,10.87
2017-07-20T22:37:25.152Z,11.23
2017-07-20T22:39:52.685Z,12.23
2017-07-20T22:42:20.216Z,13.47
2017-07-20T22:44:47.753Z,13.00
2017-07-20T22:47:15.272Z,13.10
2017-07-20T22:49:43.050Z,11.13
2017-07-20T22:52:10.597Z,12.20
2017-07-20T22:54:38.111Z,11.10
2017-07-20T22:57:05.680Z,13.07
2017-07-20T22:59:33.186Z,9.93
2017-07-20T23:02:00.995Z,11.97
2017-07-20T23:04:28.520Z,13.43
2017-07-20T23:06:56.069Z,13.57
2017-07-20T23:09:23.607Z,10.30
2017-07-20T23:11:51.122Z,13.03
2017-07-20T23:14:18.918Z,12.17
2017-07-20T23:16:46.452Z,14.63
2017-07-20T23:19:13.998Z,11.83
2017-07-20T23:21:41.533Z,13.10
2017-07-20T23:24:09.077Z,15.00
2017-07-20T23:26:37.615Z,12.93
2017-07-20T23:29:05.145Z,13.30
2017-07-20T23:31:33.754Z,12.43
2017-07-20T23:34:02.222Z,11.93
2017-07-20T23:36:29.734Z,11.07
2017-07-20T23:38:57.544Z,13.20
2017-07-20T23:41:25.064Z,14.43
2017-07-20T23:43:52.580Z,13.20
2017-07-20T23:46:20.104Z,15.00
2017-07-20T23:48:47.614Z,13.63
2017-07-20T23:51:15.448Z,13.80
2017-07-20T23:53:43.494Z,13.63
2017-07-20T23:56:11.016Z,13.97
2017-07-20T23:58:38.572Z,14.83
